sensor_id;sensor_type;location;lat;lon;timestamp;P1;durP1;ratioP1;P2;durP2;ratioP2
8698;SDS011;4386;51.236;6.742;2023-03-13T00:00:05;23.08;;;4.10;;
8698;SDS011;4386;51.236;6.742;2023-03-13T00:01:23;17.63;;;3.80;;
8698;SDS011;4386;51.236;6.742;2023-03-13T00:02:26;20.05;;;4.43;;
8698;SDS011;4386;51.236;6.742;2023-03-13T00:03:29;13.00;;;3.47;;
8698;SDS011;4386;51.236;6.742;2023-03-13T00:04:32;16.88;;;4.07;;
8698;SDS011;4386;51.236;6.742;2023-03-13T00:05:34;8.35;;;3.70;;
8698;SDS011;4386;51.236;6.742;2023-03-13T00:06:38;17.60;;;4.80;;
8698;SDS011;4386;51.236;6.742;2023-03-13T00:07:42;14.65;;;3.80;;
8698;SDS011;4386;51.236;6.742;2023-03-13T00:08:43;12.70;;;3.83;;
8698;SDS011;4386;51.236;6.742;2023-03-13T00:09:47;15.43;;;3.95;;
8698;SDS011;4386;51.236;6.742;2023-03-13T00:10:49;16.60;;;4.05;;
8698;SDS011;4386;51.236;6.742;2023-03-13T00:11:52;16.10;;;4.30;;
8698;SDS011;4386;51.236;6.742;2023-03-13T00:12:54;12.23;;;3.80;;
8698;SDS011;4386;51.236;6.742;2023-03-13T00:13:57;20.63;;;4.50;;
8698;SDS011;4386;51.236;6.742;2023-03-13T00:15:01;11.20;;;3.20;;
8698;SDS011;4386;51.236;6.742;2023-03-13T00:16:04;13.23;;;3.78;;
8698;SDS011;4386;51.236;6.742;2023-03-13T00:17:08;12.77;;;3.78;;
8698;SDS011;4386;51.236;6.742;2023-03-13T00:18:10;16.00;;;3.80;;
8698;SDS011;4386;51.236;6.742;2023-03-13T00:19:14;21.77;;;4.28;;
8698;SDS011;4386;51.236;6.742;2023-03-13T00:20:16;13.07;;;3.97;;
8698;SDS011;4386;51.236;6.742;2023-03-13T00:21:20;12.15;;;3.60;;
8698;SDS011;4386;51.236;6.742;2023-03-13T00:22:23;12.70;;;3.63;;
8698;SDS011;4386;51.236;6.742;2023-03-13T00:23:25;16.35;;;4.70;;
8698;SDS011;4386;51.236;6.742;2023-03-13T00:24:27;12.77;;;4.25;;
8698;SDS011;4386;51.236;6.742;2023-03-13T00:25:30;19.67;;;4.55;;
8698;SDS011;4386;51.236;6.742;2023-03-13T00:26:31;20.05;;;5.50;;
8698;SDS011;4386;51.236;6.742;2023-03-13T00:27:34;17.10;;;3.85;;
8698;SDS011;4386;51.236;6.742;2023-03-13T00:28:36;21.50;;;4.03;;
8698;SDS011;4386;51.236;6.742;2023-03-13T00:29:40;22.23;;;6.97;;
8698;SDS011;4386;51.236;6.742;2023-03-13T00:30:42;18.35;;;4.85;;
8698;SDS011;4386;51.236;6.742;2023-03-13T00:31:44;14.63;;;3.58;;
8698;SDS011;4386;51.236;6.742;2023-03-13T00:32:46;23.98;;;4.78;;
8698;SDS011;4386;51.236;6.742;2023-03-13T00:33:50;15.75;;;4.07;;
8698;SDS011;4386;51.236;6.742;2023-03-13T00:34:55;20.02;;;3.67;;
8698;SDS011;4386;51.236;6.742;2023-03-13T00:35:58;13.23;;;3.92;;
8698;SDS011;4386;51.236;6.742;2023-03-13T00:37:01;18.83;;;3.78;;
8698;SDS011;4386;51.236;6.742;2023-03-13T00:38:03;14.70;;;4.00;;
8698;SDS011;4386;51.236;6.742;2023-03-13T00:39:05;13.48;;;3.55;;
8698;SDS011;4386;51.236;6.742;2023-03-13T00:40:08;14.45;;;3.38;;
8698;SDS011;4386;51.236;6.742;2023-03-13T00:41:13;18.35;;;4.07;;
8698;SDS011;4386;51.236;6.742;2023-03-13T00:42:16;13.32;;;3.78;;
8698;SDS011;4386;51.236;6.742;2023-03-13T00:43:19;18.50;;;4.00;;
8698;SDS011;4386;51.236;6.742;2023-03-13T00:44:26;18.20;;;4.28;;
8698;SDS011;4386;51.236;6.742;2023-03-13T00:45:28;17.13;;;4.63;;
8698;SDS011;4386;51.236;6.742;2023-03-13T00:46:30;10.88;;;3.15;;
8698;SDS011;4386;51.236;6.742;2023-03-13T00:47:33;12.82;;;3.53;;
8698;SDS011;4386;51.236;6.742;2023-03-13T00:48:34;11.90;;;5.65;;
8698;SDS011;4386;51.236;6.742;2023-03-13T00:49:37;20.35;;;4.00;;
8698;SDS011;4386;51.236;6.742;2023-03-13T00:50:42;15.40;;;3.90;;
8698;SDS011;4386;51.236;6.742;2023-03-13T00:51:43;16.67;;;3.45;;
8698;SDS011;4386;51.236;6.742;2023-03-13T00:52:56;18.35;;;3.95;;
8698;SDS011;4386;51.236;6.742;2023-03-13T00:53:58;14.00;;;4.32;;
8698;SDS011;4386;51.236;6.742;2023-03-13T00:55:01;12.07;;;3.83;;
8698;SDS011;4386;51.236;6.742;2023-03-13T00:56:05;14.75;;;4.15;;
8698;SDS011;4386;51.236;6.742;2023-03-13T00:57:09;15.15;;;3.95;;
8698;SDS011;4386;51.236;6.742;2023-03-13T00:58:10;13.85;;;3.40;;
8698;SDS011;4386;51.236;6.742;2023-03-13T00:59:13;15.63;;;4.30;;
8698;SDS011;4386;51.236;6.742;2023-03-13T01:00:15;21.15;;;4.80;;
8698;SDS011;4386;51.236;6.742;2023-03-13T01:01:20;17.13;;;3.95;;
8698;SDS011;4386;51.236;6.742;2023-03-13T01:02:23;20.50;;;4.20;;
8698;SDS011;4386;51.236;6.742;2023-03-13T01:03:26;17.90;;;4.80;;
8698;SDS011;4386;51.236;6.742;2023-03-13T01:04:27;10.93;;;4.22;;
8698;SDS011;4386;51.236;6.742;2023-03-13T01:05:30;17.38;;;4.05;;
8698;SDS011;4386;51.236;6.742;2023-03-13T01:06:34;14.75;;;3.80;;
8698;SDS011;4386;51.236;6.742;2023-03-13T01:07:37;14.27;;;4.03;;
8698;SDS011;4386;51.236;6.742;2023-03-13T01:08:39;14.57;;;4.18;;
8698;SDS011;4386;51.236;6.742;2023-03-13T01:09:41;15.60;;;4.55;;
8698;SDS011;4386;51.236;6.742;2023-03-13T01:10:43;13.43;;;4.90;;
8698;SDS011;4386;51.236;6.742;2023-03-13T01:11:46;16.45;;;3.72;;
8698;SDS011;4386;51.236;6.742;2023-03-13T01:12:47;15.68;;;4.75;;
8698;SDS011;4386;51.236;6.742;2023-03-13T01:13:52;17.08;;;4.53;;
8698;SDS011;4386;51.236;6.742;2023-03-13T01:14:54;11.77;;;4.25;;
8698;SDS011;4386;51.236;6.742;2023-03-13T01:16:00;17.10;;;4.93;;
8698;SDS011;4386;51.236;6.742;2023-03-13T01:17:03;18.17;;;5.15;;
8698;SDS011;4386;51.236;6.742;2023-03-13T01:18:06;16.92;;;5.53;;
8698;SDS011;4386;51.236;6.742;2023-03-13T01:19:08;11.60;;;4.20;;
8698;SDS011;4386;51.236;6.742;2023-03-13T01:20:13;25.98;;;5.80;;
8698;SDS011;4386;51.236;6.742;2023-03-13T01:21:15;17.48;;;5.00;;
8698;SDS011;4386;51.236;6.742;2023-03-13T01:22:21;20.48;;;4.85;;
8698;SDS011;4386;51.236;6.742;2023-03-13T01:23:22;12.95;;;4.68;;
8698;SDS011;4386;51.236;6.742;2023-03-13T01:24:25;17.08;;;5.20;;
8698;SDS011;4386;51.236;6.742;2023-03-13T01:25:26;12.75;;;4.50;;
8698;SDS011;4386;51.236;6.742;2023-03-13T01:26:29;21.45;;;4.63;;
8698;SDS011;4386;51.236;6.742;2023-03-13T01:27:31;19.98;;;4.90;;
8698;SDS011;4386;51.236;6.742;2023-03-13T01:28:33;19.85;;;4.70;;
8698;SDS011;4386;51.236;6.742;2023-03-13T01:29:36;11.98;;;4.60;;
8698;SDS011;4386;51.236;6.742;2023-03-13T01:30:38;10.13;;;4.10;;
8698;SDS011;4386;51.236;6.742;2023-03-13T01:31:40;17.35;;;5.10;;
8698;SDS011;4386;51.236;6.742;2023-03-13T01:32:43;17.45;;;4.38;;
8698;SDS011;4386;51.236;6.742;2023-03-13T01:33:44;20.92;;;4.32;;
8698;SDS011;4386;51.236;6.742;2023-03-13T01:34:48;18.50;;;4.63;;
8698;SDS011;4386;51.236;6.742;2023-03-13T01:35:50;15.48;;;4.53;;
8698;SDS011;4386;51.236;6.742;2023-03-13T01:36:52;22.50;;;4.75;;
8698;SDS011;4386;51.236;6.742;2023-03-13T01:37:55;16.67;;;3.70;;
8698;SDS011;4386;51.236;6.742;2023-03-13T01:38:59;13.75;;;4.50;;
8698;SDS011;4386;51.236;6.742;2023-03-13T01:40:01;13.65;;;4.45;;
8698;SDS011;4386;51.236;6.742;2023-03-13T01:41:04;10.07;;;3.67;;
8698;SDS011;4386;51.236;6.742;2023-03-13T01:42:08;15.50;;;3.75;;
8698;SDS011;4386;51.236;6.742;2023-03-13T01:43:18;10.95;;;4.07;;
8698;SDS011;4386;51.236;6.742;2023-03-13T01:44:28;15.05;;;3.70;;
8698;SDS011;4386;51.236;6.742;2023-03-13T01:47:10;19.80;;;3.75;;
8698;SDS011;4386;51.236;6.742;2023-03-13T01:48:13;10.63;;;3.45;;
8698;SDS011;4386;51.236;6.742;2023-03-13T01:49:16;13.00;;;3.45;;
8698;SDS011;4386;51.236;6.742;2023-03-13T01:50:20;18.52;;;5.20;;
8698;SDS011;4386;51.236;6.742;2023-03-13T01:51:23;14.90;;;3.53;;
8698;SDS011;4386;51.236;6.742;2023-03-13T01:52:27;9.48;;;3.60;;
8698;SDS011;4386;51.236;6.742;2023-03-13T01:53:33;13.20;;;3.53;;
8698;SDS011;4386;51.236;6.742;2023-03-13T01:54:37;13.68;;;3.53;;
8698;SDS011;4386;51.236;6.742;2023-03-13T01:55:43;19.38;;;4.25;;
8698;SDS011;4386;51.236;6.742;2023-03-13T01:56:46;9.73;;;3.22;;
8698;SDS011;4386;51.236;6.742;2023-03-13T01:57:52;24.25;;;5.57;;
8698;SDS011;4386;51.236;6.742;2023-03-13T01:58:55;8.40;;;2.95;;
8698;SDS011;4386;51.236;6.742;2023-03-13T01:59:59;20.58;;;4.50;;
8698;SDS011;4386;51.236;6.742;2023-03-13T02:01:08;13.40;;;3.63;;
8698;SDS011;4386;51.236;6.742;2023-03-13T02:02:11;8.10;;;3.10;;
8698;SDS011;4386;51.236;6.742;2023-03-13T02:03:16;10.10;;;3.40;;
8698;SDS011;4386;51.236;6.742;2023-03-13T02:04:21;16.40;;;3.60;;
8698;SDS011;4386;51.236;6.742;2023-03-13T02:05:24;11.32;;;3.28;;
8698;SDS011;4386;51.236;6.742;2023-03-13T02:06:28;8.32;;;2.65;;
8698;SDS011;4386;51.236;6.742;2023-03-13T02:07:36;17.02;;;4.03;;
8698;SDS011;4386;51.236;6.742;2023-03-13T02:08:45;13.32;;;3.28;;
8698;SDS011;4386;51.236;6.742;2023-03-13T02:09:52;15.30;;;3.35;;
8698;SDS011;4386;51.236;6.742;2023-03-13T02:10:57;17.30;;;5.15;;
8698;SDS011;4386;51.236;6.742;2023-03-13T02:12:07;17.23;;;4.10;;
8698;SDS011;4386;51.236;6.742;2023-03-13T02:13:11;12.07;;;3.65;;
8698;SDS011;4386;51.236;6.742;2023-03-13T02:14:18;14.35;;;3.63;;
8698;SDS011;4386;51.236;6.742;2023-03-13T02:15:23;12.02;;;4.18;;
8698;SDS011;4386;51.236;6.742;2023-03-13T02:16:27;13.15;;;3.75;;
8698;SDS011;4386;51.236;6.742;2023-03-13T02:17:39;10.52;;;4.07;;
8698;SDS011;4386;51.236;6.742;2023-03-13T02:18:42;11.80;;;3.78;;
8698;SDS011;4386;51.236;6.742;2023-03-13T02:19:45;7.60;;;3.85;;
8698;SDS011;4386;51.236;6.742;2023-03-13T02:20:48;14.60;;;3.88;;
8698;SDS011;4386;51.236;6.742;2023-03-13T02:21:58;10.60;;;3.50;;
8698;SDS011;4386;51.236;6.742;2023-03-13T02:23:12;9.60;;;3.08;;
8698;SDS011;4386;51.236;6.742;2023-03-13T02:24:20;11.10;;;3.58;;
8698;SDS011;4386;51.236;6.742;2023-03-13T02:25:33;9.85;;;3.10;;
8698;SDS011;4386;51.236;6.742;2023-03-13T02:26:40;17.75;;;3.90;;
8698;SDS011;4386;51.236;6.742;2023-03-13T02:27:43;20.27;;;3.55;;
8698;SDS011;4386;51.236;6.742;2023-03-13T02:28:46;13.90;;;4.03;;
8698;SDS011;4386;51.236;6.742;2023-03-13T02:29:48;19.48;;;3.90;;
8698;SDS011;4386;51.236;6.742;2023-03-13T02:30:53;10.77;;;3.20;;
8698;SDS011;4386;51.236;6.742;2023-03-13T02:31:58;10.40;;;3.58;;
8698;SDS011;4386;51.236;6.742;2023-03-13T02:33:00;9.95;;;3.45;;
8698;SDS011;4386;51.236;6.742;2023-03-13T02:34:04;14.40;;;3.72;;
8698;SDS011;4386;51.236;6.742;2023-03-13T02:35:07;6.90;;;2.83;;
8698;SDS011;4386;51.236;6.742;2023-03-13T02:36:12;14.85;;;3.35;;
8698;SDS011;4386;51.236;6.742;2023-03-13T02:37:17;14.40;;;3.30;;
8698;SDS011;4386;51.236;6.742;2023-03-13T02:38:22;11.85;;;3.13;;
8698;SDS011;4386;51.236;6.742;2023-03-13T02:39:25;6.45;;;2.67;;
8698;SDS011;4386;51.236;6.742;2023-03-13T02:40:30;9.40;;;2.60;;
8698;SDS011;4386;51.236;6.742;2023-03-13T02:41:36;9.07;;;2.72;;
8698;SDS011;4386;51.236;6.742;2023-03-13T02:42:51;11.13;;;3.78;;
8698;SDS011;4386;51.236;6.742;2023-03-13T02:43:55;9.52;;;3.38;;
8698;SDS011;4386;51.236;6.742;2023-03-13T02:44:57;5.43;;;2.75;;
8698;SDS011;4386;51.236;6.742;2023-03-13T02:46:00;10.63;;;3.60;;
8698;SDS011;4386;51.236;6.742;2023-03-13T02:47:03;6.55;;;2.63;;
8698;SDS011;4386;51.236;6.742;2023-03-13T02:48:05;19.45;;;3.90;;
8698;SDS011;4386;51.236;6.742;2023-03-13T02:49:15;10.23;;;3.00;;
8698;SDS011;4386;51.236;6.742;2023-03-13T02:50:22;12.43;;;2.88;;
8698;SDS011;4386;51.236;6.742;2023-03-13T02:51:25;5.70;;;2.17;;
8698;SDS011;4386;51.236;6.742;2023-03-13T02:52:32;12.52;;;2.28;;
8698;SDS011;4386;51.236;6.742;2023-03-13T02:53:39;7.55;;;2.75;;
8698;SDS011;4386;51.236;6.742;2023-03-13T02:54:43;9.85;;;2.83;;
8698;SDS011;4386;51.236;6.742;2023-03-13T02:55:49;14.77;;;2.90;;
8698;SDS011;4386;51.236;6.742;2023-03-13T02:56:53;11.15;;;3.22;;
8698;SDS011;4386;51.236;6.742;2023-03-13T02:57:57;12.85;;;2.83;;
8698;SDS011;4386;51.236;6.742;2023-03-13T02:59:00;8.93;;;2.50;;
8698;SDS011;4386;51.236;6.742;2023-03-13T03:00:02;13.43;;;2.90;;
8698;SDS011;4386;51.236;6.742;2023-03-13T03:01:07;9.75;;;3.50;;
8698;SDS011;4386;51.236;6.742;2023-03-13T03:02:10;4.75;;;2.40;;
8698;SDS011;4386;51.236;6.742;2023-03-13T03:03:12;6.15;;;2.40;;
8698;SDS011;4386;51.236;6.742;2023-03-13T03:04:14;9.82;;;3.53;;
8698;SDS011;4386;51.236;6.742;2023-03-13T03:05:16;9.95;;;3.20;;
8698;SDS011;4386;51.236;6.742;2023-03-13T03:06:18;9.10;;;3.05;;
8698;SDS011;4386;51.236;6.742;2023-03-13T03:07:20;7.80;;;2.55;;
8698;SDS011;4386;51.236;6.742;2023-03-13T03:08:22;8.23;;;2.13;;
8698;SDS011;4386;51.236;6.742;2023-03-13T03:09:25;5.72;;;2.10;;
8698;SDS011;4386;51.236;6.742;2023-03-13T03:10:28;6.95;;;2.30;;
8698;SDS011;4386;51.236;6.742;2023-03-13T03:11:31;9.35;;;2.42;;
8698;SDS011;4386;51.236;6.742;2023-03-13T03:12:33;7.40;;;2.40;;
8698;SDS011;4386;51.236;6.742;2023-03-13T03:13:35;3.55;;;1.90;;
8698;SDS011;4386;51.236;6.742;2023-03-13T03:14:37;5.95;;;2.20;;
8698;SDS011;4386;51.236;6.742;2023-03-13T03:15:39;5.32;;;1.90;;
8698;SDS011;4386;51.236;6.742;2023-03-13T03:16:42;7.15;;;2.70;;
8698;SDS011;4386;51.236;6.742;2023-03-13T03:17:44;5.70;;;1.70;;
8698;SDS011;4386;51.236;6.742;2023-03-13T03:18:46;6.63;;;2.40;;
8698;SDS011;4386;51.236;6.742;2023-03-13T03:19:48;7.63;;;2.20;;
8698;SDS011;4386;51.236;6.742;2023-03-13T03:20:51;5.47;;;1.70;;
8698;SDS011;4386;51.236;6.742;2023-03-13T03:21:53;3.20;;;1.73;;
8698;SDS011;4386;51.236;6.742;2023-03-13T03:22:55;5.63;;;2.10;;
8698;SDS011;4386;51.236;6.742;2023-03-13T03:23:59;8.68;;;1.90;;
8698;SDS011;4386;51.236;6.742;2023-03-13T03:25:02;5.85;;;2.53;;
8698;SDS011;4386;51.236;6.742;2023-03-13T03:26:06;3.22;;;1.90;;
8698;SDS011;4386;51.236;6.742;2023-03-13T03:27:10;9.57;;;2.20;;
8698;SDS011;4386;51.236;6.742;2023-03-13T03:28:12;5.00;;;1.50;;
8698;SDS011;4386;51.236;6.742;2023-03-13T03:29:14;5.30;;;1.90;;
8698;SDS011;4386;51.236;6.742;2023-03-13T03:30:16;4.00;;;1.42;;
8698;SDS011;4386;51.236;6.742;2023-03-13T03:31:19;9.50;;;2.17;;
8698;SDS011;4386;51.236;6.742;2023-03-13T03:32:21;1.77;;;1.35;;
8698;SDS011;4386;51.236;6.742;2023-03-13T03:33:24;3.45;;;1.50;;
8698;SDS011;4386;51.236;6.742;2023-03-13T03:34:25;2.80;;;1.77;;
8698;SDS011;4386;51.236;6.742;2023-03-13T03:35:30;2.20;;;2.00;;
8698;SDS011;4386;51.236;6.742;2023-03-13T03:36:32;5.05;;;1.52;;
8698;SDS011;4386;51.236;6.742;2023-03-13T03:37:34;2.55;;;1.27;;
8698;SDS011;4386;51.236;6.742;2023-03-13T03:38:36;2.30;;;1.30;;
8698;SDS011;4386;51.236;6.742;2023-03-13T03:39:39;2.75;;;1.05;;
8698;SDS011;4386;51.236;6.742;2023-03-13T03:40:41;3.15;;;1.30;;
8698;SDS011;4386;51.236;6.742;2023-03-13T03:41:44;2.00;;;1.50;;
8698;SDS011;4386;51.236;6.742;2023-03-13T03:42:54;1.88;;;1.42;;
8698;SDS011;4386;51.236;6.742;2023-03-13T03:43:57;1.85;;;1.73;;
8698;SDS011;4386;51.236;6.742;2023-03-13T03:44:58;2.30;;;1.23;;
8698;SDS011;4386;51.236;6.742;2023-03-13T03:46:01;1.88;;;1.48;;
8698;SDS011;4386;51.236;6.742;2023-03-13T03:47:03;4.03;;;1.30;;
8698;SDS011;4386;51.236;6.742;2023-03-13T03:48:06;4.32;;;1.15;;
8698;SDS011;4386;51.236;6.742;2023-03-13T03:49:07;1.73;;;1.23;;
8698;SDS011;4386;51.236;6.742;2023-03-13T03:50:10;1.73;;;1.30;;
8698;SDS011;4386;51.236;6.742;2023-03-13T03:51:12;1.50;;;1.40;;
8698;SDS011;4386;51.236;6.742;2023-03-13T03:52:14;1.55;;;1.20;;
8698;SDS011;4386;51.236;6.742;2023-03-13T03:53:16;1.40;;;1.10;;
8698;SDS011;4386;51.236;6.742;2023-03-13T03:54:18;1.65;;;1.55;;
8698;SDS011;4386;51.236;6.742;2023-03-13T03:55:20;1.20;;;1.10;;
8698;SDS011;4386;51.236;6.742;2023-03-13T03:56:23;1.38;;;1.23;;
8698;SDS011;4386;51.236;6.742;2023-03-13T03:57:24;1.10;;;1.00;;
8698;SDS011;4386;51.236;6.742;2023-03-13T03:58:28;2.65;;;1.20;;
8698;SDS011;4386;51.236;6.742;2023-03-13T03:59:30;2.65;;;1.17;;
8698;SDS011;4386;51.236;6.742;2023-03-13T04:00:32;1.15;;;1.05;;
8698;SDS011;4386;51.236;6.742;2023-03-13T04:01:34;2.15;;;1.60;;
8698;SDS011;4386;51.236;6.742;2023-03-13T04:02:37;1.90;;;1.10;;
8698;SDS011;4386;51.236;6.742;2023-03-13T04:03:38;4.22;;;2.10;;
8698;SDS011;4386;51.236;6.742;2023-03-13T04:04:41;1.08;;;1.08;;
8698;SDS011;4386;51.236;6.742;2023-03-13T04:05:43;3.42;;;0.98;;
8698;SDS011;4386;51.236;6.742;2023-03-13T04:06:47;1.55;;;1.20;;
8698;SDS011;4386;51.236;6.742;2023-03-13T04:07:49;1.90;;;1.20;;
8698;SDS011;4386;51.236;6.742;2023-03-13T04:08:51;1.30;;;1.02;;
8698;SDS011;4386;51.236;6.742;2023-03-13T04:09:53;1.75;;;1.00;;
8698;SDS011;4386;51.236;6.742;2023-03-13T04:10:55;1.70;;;1.40;;
8698;SDS011;4386;51.236;6.742;2023-03-13T04:11:57;1.55;;;1.20;;
8698;SDS011;4386;51.236;6.742;2023-03-13T04:13:00;2.35;;;1.20;;
8698;SDS011;4386;51.236;6.742;2023-03-13T04:14:03;1.52;;;1.42;;
8698;SDS011;4386;51.236;6.742;2023-03-13T04:15:06;1.73;;;1.40;;
8698;SDS011;4386;51.236;6.742;2023-03-13T04:16:09;3.08;;;1.42;;
8698;SDS011;4386;51.236;6.742;2023-03-13T04:17:11;1.60;;;1.48;;
8698;SDS011;4386;51.236;6.742;2023-03-13T04:18:13;1.20;;;1.10;;
8698;SDS011;4386;51.236;6.742;2023-03-13T04:19:16;3.03;;;1.20;;
8698;SDS011;4386;51.236;6.742;2023-03-13T04:20:19;1.40;;;1.30;;
8698;SDS011;4386;51.236;6.742;2023-03-13T04:21:21;1.30;;;1.20;;
8698;SDS011;4386;51.236;6.742;2023-03-13T04:22:23;1.55;;;1.20;;
8698;SDS011;4386;51.236;6.742;2023-03-13T04:23:25;2.88;;;1.40;;
8698;SDS011;4386;51.236;6.742;2023-03-13T04:24:27;4.57;;;1.20;;
8698;SDS011;4386;51.236;6.742;2023-03-13T04:25:29;2.08;;;1.15;;
8698;SDS011;4386;51.236;6.742;2023-03-13T04:26:32;3.30;;;1.60;;
8698;SDS011;4386;51.236;6.742;2023-03-13T04:27:39;1.30;;;1.20;;
8698;SDS011;4386;51.236;6.742;2023-03-13T04:28:42;1.50;;;1.40;;
8698;SDS011;4386;51.236;6.742;2023-03-13T04:29:45;2.38;;;1.20;;
8698;SDS011;4386;51.236;6.742;2023-03-13T04:30:47;3.47;;;1.25;;
8698;SDS011;4386;51.236;6.742;2023-03-13T04:31:49;1.20;;;1.10;;
8698;SDS011;4386;51.236;6.742;2023-03-13T04:32:52;3.85;;;1.20;;
8698;SDS011;4386;51.236;6.742;2023-03-13T04:33:55;3.75;;;1.10;;
8698;SDS011;4386;51.236;6.742;2023-03-13T04:34:57;1.30;;;1.20;;
8698;SDS011;4386;51.236;6.742;2023-03-13T04:35:59;4.65;;;4.35;;
8698;SDS011;4386;51.236;6.742;2023-03-13T04:37:02;3.70;;;1.60;;
8698;SDS011;4386;51.236;6.742;2023-03-13T04:38:03;1.40;;;1.30;;
8698;SDS011;4386;51.236;6.742;2023-03-13T04:39:06;3.38;;;1.25;;
8698;SDS011;4386;51.236;6.742;2023-03-13T04:40:08;1.30;;;1.20;;
8698;SDS011;4386;51.236;6.742;2023-03-13T04:41:12;3.47;;;1.50;;
8698;SDS011;4386;51.236;6.742;2023-03-13T04:42:14;1.48;;;1.20;;
8698;SDS011;4386;51.236;6.742;2023-03-13T04:43:17;1.92;;;1.23;;
8698;SDS011;4386;51.236;6.742;2023-03-13T04:44:19;1.20;;;1.05;;
8698;SDS011;4386;51.236;6.742;2023-03-13T04:45:23;2.35;;;1.00;;
8698;SDS011;4386;51.236;6.742;2023-03-13T04:46:25;1.30;;;1.20;;
8698;SDS011;4386;51.236;6.742;2023-03-13T04:47:27;1.45;;;1.35;;
8698;SDS011;4386;51.236;6.742;2023-03-13T04:48:29;3.75;;;1.45;;
8698;SDS011;4386;51.236;6.742;2023-03-13T04:49:31;1.50;;;1.40;;
8698;SDS011;4386;51.236;6.742;2023-03-13T04:50:33;1.35;;;1.25;;
8698;SDS011;4386;51.236;6.742;2023-03-13T04:51:35;1.52;;;1.38;;
8698;SDS011;4386;51.236;6.742;2023-03-13T04:52:37;1.40;;;1.30;;
8698;SDS011;4386;51.236;6.742;2023-03-13T04:53:40;1.48;;;1.30;;
8698;SDS011;4386;51.236;6.742;2023-03-13T04:54:41;1.75;;;1.10;;
8698;SDS011;4386;51.236;6.742;2023-03-13T04:55:44;2.08;;;1.30;;
8698;SDS011;4386;51.236;6.742;2023-03-13T04:56:46;1.50;;;1.30;;
8698;SDS011;4386;51.236;6.742;2023-03-13T04:57:49;1.77;;;1.45;;
8698;SDS011;4386;51.236;6.742;2023-03-13T04:58:51;2.05;;;1.17;;
8698;SDS011;4386;51.236;6.742;2023-03-13T04:59:53;1.73;;;1.20;;
8698;SDS011;4386;51.236;6.742;2023-03-13T05:00:56;1.52;;;1.42;;
8698;SDS011;4386;51.236;6.742;2023-03-13T05:01:59;3.53;;;1.52;;
8698;SDS011;4386;51.236;6.742;2023-03-13T05:03:00;1.75;;;1.65;;
8698;SDS011;4386;51.236;6.742;2023-03-13T05:04:03;2.05;;;1.10;;
8698;SDS011;4386;51.236;6.742;2023-03-13T05:05:05;1.65;;;1.55;;
8698;SDS011;4386;51.236;6.742;2023-03-13T05:06:08;1.60;;;1.50;;
8698;SDS011;4386;51.236;6.742;2023-03-13T05:07:10;1.48;;;1.38;;
8698;SDS011;4386;51.236;6.742;2023-03-13T05:08:12;1.98;;;1.52;;
8698;SDS011;4386;51.236;6.742;2023-03-13T05:09:14;2.38;;;1.70;;
8698;SDS011;4386;51.236;6.742;2023-03-13T05:10:17;3.00;;;1.92;;
8698;SDS011;4386;51.236;6.742;2023-03-13T05:11:18;1.85;;;1.70;;
8698;SDS011;4386;51.236;6.742;2023-03-13T05:12:21;2.33;;;1.58;;
8698;SDS011;4386;51.236;6.742;2023-03-13T05:13:22;1.98;;;1.80;;
8698;SDS011;4386;51.236;6.742;2023-03-13T05:14:25;2.28;;;1.70;;
8698;SDS011;4386;51.236;6.742;2023-03-13T05:15:26;1.75;;;1.50;;
8698;SDS011;4386;51.236;6.742;2023-03-13T05:16:31;1.98;;;1.75;;
8698;SDS011;4386;51.236;6.742;2023-03-13T05:17:33;1.75;;;1.65;;
8698;SDS011;4386;51.236;6.742;2023-03-13T05:18:35;2.85;;;1.85;;
8698;SDS011;4386;51.236;6.742;2023-03-13T05:19:37;3.03;;;2.60;;
8698;SDS011;4386;51.236;6.742;2023-03-13T05:20:39;2.38;;;1.58;;
8698;SDS011;4386;51.236;6.742;2023-03-13T05:21:41;3.22;;;2.03;;
8698;SDS011;4386;51.236;6.742;2023-03-13T05:22:43;1.88;;;1.77;;
8698;SDS011;4386;51.236;6.742;2023-03-13T05:23:45;5.68;;;2.10;;
8698;SDS011;4386;51.236;6.742;2023-03-13T05:24:48;1.90;;;1.80;;
8698;SDS011;4386;51.236;6.742;2023-03-13T05:25:49;4.25;;;2.60;;
8698;SDS011;4386;51.236;6.742;2023-03-13T05:26:52;2.15;;;1.95;;
8698;SDS011;4386;51.236;6.742;2023-03-13T05:27:54;2.45;;;1.85;;
8698;SDS011;4386;51.236;6.742;2023-03-13T05:28:56;4.43;;;2.20;;
8698;SDS011;4386;51.236;6.742;2023-03-13T05:29:58;2.42;;;2.03;;
8698;SDS011;4386;51.236;6.742;2023-03-13T05:31:01;4.45;;;1.77;;
8698;SDS011;4386;51.236;6.742;2023-03-13T05:32:04;2.25;;;2.05;;
8698;SDS011;4386;51.236;6.742;2023-03-13T05:33:07;2.80;;;1.95;;
8698;SDS011;4386;51.236;6.742;2023-03-13T05:34:19;1.95;;;1.85;;
8698;SDS011;4386;51.236;6.742;2023-03-13T05:35:21;2.20;;;2.00;;
8698;SDS011;4386;51.236;6.742;2023-03-13T05:36:24;1.88;;;1.77;;
8698;SDS011;4386;51.236;6.742;2023-03-13T05:37:26;3.42;;;1.92;;
8698;SDS011;4386;51.236;6.742;2023-03-13T05:38:38;2.38;;;2.05;;
8698;SDS011;4386;51.236;6.742;2023-03-13T05:39:41;6.18;;;2.50;;
8698;SDS011;4386;51.236;6.742;2023-03-13T05:40:42;4.50;;;2.33;;
8698;SDS011;4386;51.236;6.742;2023-03-13T05:41:45;2.10;;;1.90;;
8698;SDS011;4386;51.236;6.742;2023-03-13T05:42:46;3.33;;;2.22;;
8698;SDS011;4386;51.236;6.742;2023-03-13T05:43:49;2.70;;;2.00;;
8698;SDS011;4386;51.236;6.742;2023-03-13T05:44:53;3.05;;;1.92;;
8698;SDS011;4386;51.236;6.742;2023-03-13T05:45:55;4.78;;;2.00;;
8698;SDS011;4386;51.236;6.742;2023-03-13T05:46:58;2.55;;;1.83;;
8698;SDS011;4386;51.236;6.742;2023-03-13T05:48:01;2.75;;;2.15;;
8698;SDS011;4386;51.236;6.742;2023-03-13T05:49:03;4.47;;;2.42;;
8698;SDS011;4386;51.236;6.742;2023-03-13T05:50:05;2.00;;;1.88;;
8698;SDS011;4386;51.236;6.742;2023-03-13T05:51:09;2.90;;;2.70;;
8698;SDS011;4386;51.236;6.742;2023-03-13T05:52:10;3.30;;;2.22;;
8698;SDS011;4386;51.236;6.742;2023-03-13T05:53:13;2.80;;;2.30;;
8698;SDS011;4386;51.236;6.742;2023-03-13T05:54:24;3.03;;;2.00;;
8698;SDS011;4386;51.236;6.742;2023-03-13T05:55:27;3.55;;;2.10;;
8698;SDS011;4386;51.236;6.742;2023-03-13T05:56:28;2.88;;;1.80;;
8698;SDS011;4386;51.236;6.742;2023-03-13T05:57:31;4.90;;;2.00;;
8698;SDS011;4386;51.236;6.742;2023-03-13T05:58:32;2.20;;;2.10;;
8698;SDS011;4386;51.236;6.742;2023-03-13T05:59:35;2.40;;;2.15;;
8698;SDS011;4386;51.236;6.742;2023-03-13T06:00:37;4.18;;;2.50;;
8698;SDS011;4386;51.236;6.742;2023-03-13T06:01:39;2.63;;;2.30;;
8698;SDS011;4386;51.236;6.742;2023-03-13T06:02:41;2.08;;;1.55;;
8698;SDS011;4386;51.236;6.742;2023-03-13T06:03:45;2.50;;;1.80;;
8698;SDS011;4386;51.236;6.742;2023-03-13T06:04:47;8.18;;;1.98;;
8698;SDS011;4386;51.236;6.742;2023-03-13T06:05:55;2.25;;;1.95;;
8698;SDS011;4386;51.236;6.742;2023-03-13T06:06:59;8.13;;;2.00;;
8698;SDS011;4386;51.236;6.742;2023-03-13T06:08:00;6.25;;;1.92;;
8698;SDS011;4386;51.236;6.742;2023-03-13T06:09:03;9.45;;;2.90;;
8698;SDS011;4386;51.236;6.742;2023-03-13T06:10:05;2.33;;;1.67;;
8698;SDS011;4386;51.236;6.742;2023-03-13T06:11:08;4.28;;;2.20;;
8698;SDS011;4386;51.236;6.742;2023-03-13T06:12:10;2.83;;;1.90;;
8698;SDS011;4386;51.236;6.742;2023-03-13T06:13:13;4.07;;;2.50;;
8698;SDS011;4386;51.236;6.742;2023-03-13T06:14:20;2.45;;;2.08;;
8698;SDS011;4386;51.236;6.742;2023-03-13T06:15:23;5.07;;;1.88;;
8698;SDS011;4386;51.236;6.742;2023-03-13T06:16:25;1.77;;;1.67;;
8698;SDS011;4386;51.236;6.742;2023-03-13T06:17:27;2.55;;;1.98;;
8698;SDS011;4386;51.236;6.742;2023-03-13T06:18:29;2.03;;;1.73;;
8698;SDS011;4386;51.236;6.742;2023-03-13T06:19:33;3.35;;;2.25;;
8698;SDS011;4386;51.236;6.742;2023-03-13T06:20:35;2.30;;;2.10;;
8698;SDS011;4386;51.236;6.742;2023-03-13T06:21:37;2.15;;;1.98;;
8698;SDS011;4386;51.236;6.742;2023-03-13T06:22:39;2.03;;;1.63;;
8698;SDS011;4386;51.236;6.742;2023-03-13T06:23:42;7.72;;;1.83;;
8698;SDS011;4386;51.236;6.742;2023-03-13T06:24:44;3.53;;;2.50;;
8698;SDS011;4386;51.236;6.742;2023-03-13T06:25:51;1.60;;;1.50;;
8698;SDS011;4386;51.236;6.742;2023-03-13T06:26:53;2.20;;;2.00;;
8698;SDS011;4386;51.236;6.742;2023-03-13T06:27:56;1.83;;;1.73;;
8698;SDS011;4386;51.236;6.742;2023-03-13T06:28:58;3.05;;;1.80;;
8698;SDS011;4386;51.236;6.742;2023-03-13T06:30:00;1.80;;;1.60;;
8698;SDS011;4386;51.236;6.742;2023-03-13T06:31:13;5.25;;;1.90;;
8698;SDS011;4386;51.236;6.742;2023-03-13T06:32:15;4.88;;;2.00;;